Time,TemperatureF,DewpointF,PressureIn,WindDirection,WindDirectionDegrees,WindSpeedMPH,WindSpeedGustMPH,Humidity,HourlyPrecipIn,Conditions,Clouds,dailyrainin,SoftwareType,DateUTC
2013-03-19 01:03:00,1.0,-99.9,30.23,SW,225,0.0,5.0,0,-99.99,,,0.00,,2013-03-19 05:03:00,
2013-03-19 01:43:00,1.0,-99.9,30.23,SW,225,0.0,5.0,0,-99.99,,,0.00,,2013-03-19 05:43:00,
2013-03-19 01:52:00,1.0,-99.9,30.23,SW,225,0.0,5.0,0,-99.99,,,0.00,,2013-03-19 05:52:00,
2013-03-19 03:03:00,-1.0,-99.9,30.21,SSW,202,0.0,3.0,0,-99.99,,,0.00,,2013-03-19 07:03:00,
2013-03-19 03:42:00,-1.0,-99.9,30.21,SSW,202,0.0,3.0,0,-99.99,,,0.00,,2013-03-19 07:42:00,
2013-03-19 03:53:00,-1.0,-99.9,30.21,SSW,202,0.0,3.0,0,-99.99,,,0.00,,2013-03-19 07:53:00,
2013-03-19 04:03:00,-1.0,-99.9,30.21,SW,225,0.0,5.0,0,-99.99,,,0.00,,2013-03-19 08:03:00,
2013-03-19 04:43:00,-1.0,-99.9,30.21,SW,225,0.0,5.0,0,-99.99,,,0.00,,2013-03-19 08:43:00,
2013-03-19 04:53:00,-1.0,-99.9,30.21,SW,225,0.0,5.0,0,-99.99,,,0.00,,2013-03-19 08:53:00,
2013-03-19 05:03:00,-1.0,-99.9,30.21,SW,225,0.0,0.0,0,-99.99,,,0.00,,2013-03-19 09:03:00,
2013-03-19 05:43:00,-1.0,-99.9,30.21,SW,225,0.0,0.0,0,-99.99,,,0.00,,2013-03-19 09:43:00,
2013-03-19 05:53:00,-1.0,-99.9,30.21,SW,225,0.0,0.0,0,-99.99,,,0.00,,2013-03-19 09:53:00,
2013-03-19 06:03:00,-1.0,-99.9,30.19,SW,225,0.0,0.0,0,-99.99,,,0.00,,2013-03-19 10:03:00,
2013-03-19 06:42:00,-1.0,-99.9,30.19,SW,225,0.0,0.0,0,-99.99,,,0.00,,2013-03-19 10:42:00,
2013-03-19 06:53:00,-1.0,-99.9,30.19,SW,225,0.0,0.0,0,-99.99,,,0.00,,2013-03-19 10:53:00,
2013-03-19 07:43:00,-1.0,-99.9,30.20,SW,225,0.0,0.0,0,-99.99,,,0.00,,2013-03-19 11:43:00,
2013-03-19 07:53:00,-1.0,-99.9,30.20,SW,225,0.0,0.0,0,-99.99,,,0.00,,2013-03-19 11:53:00,
2013-03-19 08:02:00,-1.0,-99.9,30.20,SW,225,0.0,0.0,0,-99.99,,,0.00,,2013-03-19 12:02:00,
2013-03-19 09:42:00,9.0,-99.9,30.20,ENE,67,4.0,6.0,0,-99.99,,,0.00,,2013-03-19 13:42:00,
2013-03-19 09:53:00,9.0,-99.9,30.20,ENE,67,4.0,6.0,0,-99.99,,,0.00,,2013-03-19 13:53:00,
2013-03-19 10:02:00,9.0,-99.9,30.20,ENE,67,4.0,6.0,0,-99.99,,,0.00,,2013-03-19 14:02:00,
2013-03-19 10:03:00,15.0,-99.9,30.16,ENE,67,3.0,11.0,0,-99.99,,,0.00,,2013-03-19 14:03:00,
2013-03-19 10:42:00,15.0,-99.9,30.16,ENE,67,3.0,11.0,0,-99.99,,,0.00,,2013-03-19 14:42:00,
2013-03-19 10:53:00,15.0,-99.9,30.16,ENE,67,3.0,11.0,0,-99.99,,,0.00,,2013-03-19 14:53:00,
2013-03-19 12:03:00,20.0,-99.9,30.10,South,180,3.0,10.0,0,-99.99,,,0.00,,2013-03-19 16:03:00,
2013-03-19 12:44:00,20.0,-99.9,30.10,South,180,3.0,10.0,0,-99.99,,,0.00,,2013-03-19 16:44:00,
2013-03-19 12:55:00,20.0,-99.9,30.10,South,180,3.0,10.0,0,-99.99,,,0.00,,2013-03-19 16:55:00,
2013-03-19 13:03:00,23.0,-99.9,30.06,ESE,112,5.0,12.0,0,-99.99,,,0.00,,2013-03-19 17:03:00,
2013-03-19 13:44:00,23.0,-99.9,30.06,ESE,112,5.0,12.0,0,-99.99,,,0.00,,2013-03-19 17:44:00,
2013-03-19 13:53:00,23.0,-99.9,30.06,ESE,112,5.0,12.0,0,-99.99,,,0.00,,2013-03-19 17:53:00,
2013-03-19 14:03:00,24.0,-99.9,30.03,North,360,1.0,11.0,0,-99.99,,,0.00,,2013-03-19 18:03:00,
2013-03-19 14:44:00,24.0,-99.9,30.03,North,360,1.0,11.0,0,-99.99,,,0.00,,2013-03-19 18:44:00,
2013-03-19 14:54:00,24.0,-99.9,30.03,North,360,1.0,11.0,0,-99.99,,,0.00,,2013-03-19 18:54:00,
2013-03-19 15:03:00,25.0,-99.9,29.99,ESE,112,4.0,11.0,0,-99.99,,,0.00,,2013-03-19 19:03:00,
2013-03-19 15:43:00,25.0,-99.9,29.99,ESE,112,4.0,11.0,0,-99.99,,,0.00,,2013-03-19 19:43:00,
2013-03-19 15:53:00,25.0,-99.9,29.99,ESE,112,4.0,11.0,0,-99.99,,,0.00,,2013-03-19 19:53:00,
2013-03-19 16:03:00,26.0,-99.9,29.97,NE,45,5.0,11.0,0,-99.99,,,0.00,,2013-03-19 20:03:00,
2013-03-19 16:43:00,26.0,-99.9,29.97,NE,45,5.0,11.0,0,-99.99,,,0.00,,2013-03-19 20:43:00,
2013-03-19 16:53:00,26.0,-99.9,29.97,NE,45,5.0,11.0,0,-99.99,,,0.00,,2013-03-19 20:53:00,
2013-03-19 17:03:00,25.0,-99.9,29.94,South,180,4.0,10.0,0,-99.99,,,0.00,,2013-03-19 21:03:00,
2013-03-19 17:43:00,25.0,-99.9,29.94,South,180,4.0,10.0,0,-99.99,,,0.00,,2013-03-19 21:43:00,
2013-03-19 17:53:00,25.0,-99.9,29.94,South,180,4.0,10.0,0,-99.99,,,0.00,,2013-03-19 21:53:00,
2013-03-19 18:03:00,25.0,-99.9,29.92,East,90,0.0,12.0,0,-99.99,,,0.00,,2013-03-19 22:03:00,
2013-03-19 18:44:00,25.0,-99.9,29.92,East,90,0.0,12.0,0,-99.99,,,0.00,,2013-03-19 22:44:00,
2013-03-19 18:54:00,25.0,-99.9,29.92,East,90,0.0,12.0,0,-99.99,,,0.00,,2013-03-19 22:54:00,
2013-03-19 19:03:00,23.0,-99.9,29.90,ESE,112,0.0,10.0,0,-99.99,,,0.00,,2013-03-19 23:03:00,
2013-03-19 19:43:00,23.0,-99.9,29.90,ESE,112,0.0,10.0,0,-99.99,,,0.00,,2013-03-19 23:43:00,
2013-03-19 19:53:00,23.0,-99.9,29.90,ESE,112,0.0,10.0,0,-99.99,,,0.00,,2013-03-19 23:53:00,
2013-03-19 20:03:00,23.0,-99.9,29.87,East,90,1.0,9.0,0,-99.99,,,-99.99,,2013-03-20 00:03:00,
2013-03-19 20:43:00,23.0,-99.9,29.87,East,90,1.0,9.0,0,-99.99,,,-99.99,,2013-03-20 00:43:00,
2013-03-19 20:53:00,23.0,-99.9,29.87,East,90,1.0,9.0,0,-99.99,,,-99.99,,2013-03-20 00:53:00,
2013-03-19 21:03:00,24.0,-99.9,29.85,SSE,157,1.0,15.0,0,-99.99,,,0.00,,2013-03-20 01:03:00,
2013-03-19 21:43:00,24.0,-99.9,29.85,SSE,157,1.0,15.0,0,-99.99,,,0.00,,2013-03-20 01:43:00,
2013-03-19 21:53:00,24.0,-99.9,29.85,SSE,157,1.0,15.0,0,-99.99,,,0.00,,2013-03-20 01:53:00,
2013-03-19 22:43:00,23.0,-99.9,29.84,East,90,5.0,14.0,0,-99.99,,,0.00,,2013-03-20 02:43:00,
2013-03-19 22:53:00,23.0,-99.9,29.84,East,90,5.0,14.0,0,-99.99,,,0.00,,2013-03-20 02:53:00,
2013-03-19 23:02:00,23.0,-99.9,29.84,East,90,5.0,14.0,0,-99.99,,,0.00,,2013-03-20 03:02:00,
2013-03-19 23:03:00,19.0,-99.9,29.82,ESE,112,5.0,14.0,0,-99.99,,,0.00,,2013-03-20 03:03:00,
2013-03-19 23:43:00,19.0,-99.9,29.82,ESE,112,5.0,14.0,0,-99.99,,,0.00,,2013-03-20 03:43:00,
2013-03-19 23:53:00,19.0,-99.9,29.82,ESE,112,5.0,14.0,0,-99.99,,,0.00,,2013-03-20 03:53:00,